createdAt,value
2022-10-11T00:01:31.684Z,99659.59
2022-10-11T00:03:36.371Z,99663.84
2022-10-11T00:05:41.036Z,99661.75
2022-10-11T00:07:45.737Z,99662.52
2022-10-11T00:09:50.390Z,99658.70
2022-10-11T00:11:57.535Z,99659.77
2022-10-11T00:14:02.227Z,99662.41
2022-10-11T00:16:11.731Z,99660.83
2022-10-11T00:18:16.409Z,99659.17
2022-10-11T00:20:21.361Z,99660.06
2022-10-11T00:22:26.111Z,99661.29
2022-10-11T00:24:30.971Z,99660.23
2022-10-11T00:26:35.668Z,99659.38
2022-10-11T00:28:41.519Z,99658.92
2022-10-11T00:30:46.194Z,99659.92
2022-10-11T00:32:50.861Z,99660.00
2022-10-11T00:34:55.871Z,99656.58
2022-10-11T00:37:01.254Z,99655.01
2022-10-11T00:39:06.042Z,99654.38
2022-10-11T00:41:10.848Z,99655.88
2022-10-11T00:43:20.031Z,99656.34
2022-10-11T00:46:06.907Z,99662.33
2022-10-11T00:48:16.433Z,99663.88
2022-10-11T00:50:23.564Z,99670.67
2022-10-11T00:52:33.060Z,99673.45
2022-10-11T00:54:41.439Z,99673.11
2022-10-11T00:56:49.451Z,99673.95
2022-10-11T00:58:55.773Z,99677.45
2022-10-11T01:01:00.603Z,99675.86
2022-10-11T01:03:06.752Z,99679.02
2022-10-11T01:05:30.435Z,99683.50
2022-10-11T01:07:36.447Z,99688.52
2022-10-11T01:09:41.083Z,99693.61
2022-10-11T01:11:47.148Z,99694.80
2022-10-11T01:14:07.235Z,99695.79
2022-10-11T01:16:21.223Z,99692.19
2022-10-11T01:18:34.820Z,99694.22
2022-10-11T01:20:48.576Z,99692.65
2022-10-11T01:23:25.413Z,99694.44
2022-10-11T01:25:37.714Z,99695.10
2022-10-11T01:28:00.109Z,99688.95
2022-10-11T01:30:20.480Z,99689.71
2022-10-11T01:32:32.285Z,99687.02
2022-10-11T01:34:41.825Z,99688.66
2022-10-11T01:36:53.769Z,99681.88
2022-10-11T01:39:04.403Z,99683.32
2022-10-11T01:41:15.531Z,99687.84
2022-10-11T01:43:21.851Z,99688.61
2022-10-11T01:45:26.566Z,99691.61
2022-10-11T01:47:31.255Z,99693.08
2022-10-11T01:49:36.297Z,99690.23
2022-10-11T01:51:47.190Z,99691.31
2022-10-11T01:54:56.652Z,99696.69
2022-10-11T01:57:31.617Z,99702.02
2022-10-11T01:59:47.982Z,99707.61
2022-10-11T02:02:02.364Z,99706.77
2022-10-11T02:04:15.318Z,99707.43
2022-10-11T02:06:25.520Z,99702.42
2022-10-11T02:08:38.976Z,99701.63
2022-10-11T02:10:49.504Z,99707.79
2022-10-11T02:12:59.403Z,99712.88
2022-10-11T02:15:07.761Z,99707.89
2022-10-11T02:17:16.906Z,99711.58
2022-10-11T02:19:26.203Z,99711.52
2022-10-11T02:21:33.944Z,99711.10
2022-10-11T02:23:45.354Z,99710.80
2022-10-11T02:25:52.116Z,99712.27
2022-10-11T02:28:01.617Z,99710.08
2022-10-11T02:30:09.116Z,99712.98
2022-10-11T02:32:16.186Z,99713.50
2022-10-11T02:34:24.461Z,99716.05
2022-10-11T02:36:49.753Z,99715.52
2022-10-11T02:38:59.355Z,99718.98
2022-10-11T02:41:10.769Z,99721.90
2022-10-11T02:43:18.211Z,99720.29
2022-10-11T02:45:27.967Z,99721.56
2022-10-11T02:47:33.589Z,99724.59
2022-10-11T02:49:38.497Z,99726.02
2022-10-11T02:51:43.351Z,99722.80
2022-10-11T02:53:47.941Z,99723.40
2022-10-11T02:55:53.995Z,99721.16
2022-10-11T02:57:58.585Z,99721.11
2022-10-11T03:00:03.794Z,99728.09
2022-10-11T03:02:08.510Z,99723.39
2022-10-11T03:04:13.637Z,99726.16
2022-10-11T03:06:18.287Z,99728.11
2022-10-11T03:08:22.972Z,99726.99
2022-10-11T03:10:27.633Z,99731.79
2022-10-11T03:12:32.345Z,99728.77
2022-10-11T03:14:37.002Z,99733.12
2022-10-11T03:16:41.718Z,99733.91
2022-10-11T03:18:46.366Z,99736.64
2022-10-11T03:20:50.993Z,99739.67
2022-10-11T03:22:55.648Z,99740.41
2022-10-11T03:25:04.015Z,99740.37
2022-10-11T03:27:09.588Z,99740.30
2022-10-11T03:29:15.541Z,99744.66
2022-10-11T03:31:20.556Z,99742.33
2022-10-11T03:33:25.252Z,99747.49
2022-10-11T03:35:29.881Z,99749.05
2022-10-11T03:37:34.691Z,99750.69
2022-10-11T03:39:40.423Z,99749.10
2022-10-11T03:41:45.122Z,99749.63
2022-10-11T03:43:49.757Z,99748.91
2022-10-11T03:45:54.390Z,99756.85
2022-10-11T03:47:59.029Z,99756.54
2022-10-11T03:50:04.381Z,99762.05
2022-10-11T03:52:09.031Z,99758.89
2022-10-11T03:54:13.667Z,99752.55
2022-10-11T03:56:18.315Z,99751.16
2022-10-11T03:58:23.500Z,99752.58
2022-10-11T04:00:28.228Z,99752.95
2022-10-11T04:02:37.003Z,99750.75
2022-10-11T04:04:43.764Z,99752.16
2022-10-11T04:06:48.433Z,99748.95
2022-10-11T04:08:53.103Z,99748.30
2022-10-11T04:10:57.777Z,99753.25
2022-10-11T04:13:02.444Z,99754.28
2022-10-11T04:15:08.415Z,99757.27
2022-10-11T04:17:12.970Z,99757.80
2022-10-11T04:19:17.773Z,99760.27
2022-10-11T04:21:22.480Z,99755.48
2022-10-11T04:23:27.263Z,99754.37
2022-10-11T04:25:31.876Z,99755.23
2022-10-11T04:27:36.689Z,99756.16
2022-10-11T04:29:41.292Z,99760.87
2022-10-11T04:31:45.969Z,99761.67
2022-10-11T04:33:50.590Z,99760.61
2022-10-11T04:35:57.007Z,99761.48
2022-10-11T04:38:01.758Z,99762.48
2022-10-11T04:40:07.793Z,99759.70
2022-10-11T04:42:12.649Z,99762.82
2022-10-11T04:44:17.273Z,99766.75
2022-10-11T04:46:21.929Z,99761.96
2022-10-11T04:48:26.612Z,99763.77
2022-10-11T04:50:31.222Z,99766.33
2022-10-11T04:52:35.812Z,99764.56
2022-10-11T04:54:40.450Z,99767.21
2022-10-11T04:56:45.017Z,99770.52
2022-10-11T04:58:49.710Z,99773.36
2022-10-11T05:00:57.168Z,99767.14
2022-10-11T05:03:01.879Z,99767.34
2022-10-11T05:05:07.941Z,99773.35
2022-10-11T05:07:12.611Z,99772.52
2022-10-11T05:09:17.275Z,99773.98
2022-10-11T05:11:21.946Z,99773.98
2022-10-11T05:13:27.004Z,99777.11
2022-10-11T05:15:31.729Z,99779.37
2022-10-11T05:17:36.357Z,99781.05
2022-10-11T05:19:41.185Z,99778.25
2022-10-11T05:21:45.767Z,99782.16
2022-10-11T05:23:52.604Z,99778.42
2022-10-11T05:25:57.328Z,99784.98
2022-10-11T05:28:02.003Z,99788.05
2022-10-11T05:30:08.672Z,99788.63
2022-10-11T05:32:13.293Z,99789.12
2022-10-11T05:34:17.914Z,99793.19
2022-10-11T05:36:22.681Z,99794.55
2022-10-11T05:38:27.428Z,99801.02
2022-10-11T05:40:32.151Z,99801.39
2022-10-11T05:42:36.914Z,99800.30
2022-10-11T05:44:41.517Z,99806.20
2022-10-11T05:46:46.167Z,99805.04
2022-10-11T05:48:50.819Z,99804.14
2022-10-11T05:51:00.910Z,99807.98
2022-10-11T05:53:06.243Z,99808.02
2022-10-11T05:55:11.435Z,99810.46
2022-10-11T05:57:16.104Z,99813.10
2022-10-11T05:59:20.768Z,99818.11
2022-10-11T06:01:26.857Z,99819.19
2022-10-11T06:03:32.069Z,99824.50
2022-10-11T06:05:37.203Z,99822.50
2022-10-11T06:07:41.928Z,99828.02
2022-10-11T06:09:46.534Z,99826.59
2022-10-11T06:11:51.227Z,99832.79
2022-10-11T06:13:57.695Z,99836.95
2022-10-11T06:16:05.455Z,99839.58
2022-10-11T06:18:10.368Z,99840.09
2022-10-11T06:20:15.208Z,99845.34
2022-10-11T06:22:19.888Z,99843.53
2022-10-11T06:24:24.633Z,99845.75
2022-10-11T06:26:29.493Z,99847.19
2022-10-11T06:28:36.012Z,99851.00
2022-10-11T06:30:41.338Z,99852.83
2022-10-11T06:32:45.985Z,99856.84
2022-10-11T06:34:50.620Z,99857.79
2022-10-11T06:36:55.275Z,99860.30
2022-10-11T06:38:59.852Z,99860.35
2022-10-11T06:41:13.330Z,99863.56
2022-10-11T06:43:18.012Z,99864.41
2022-10-11T06:45:22.643Z,99870.73
2022-10-11T06:47:27.382Z,99872.16
2022-10-11T06:49:31.964Z,99873.73
2022-10-11T06:51:36.653Z,99869.11
2022-10-11T06:53:41.637Z,99868.88
2022-10-11T06:55:46.228Z,99867.10
2022-10-11T06:57:50.866Z,99864.91
2022-10-11T06:59:55.472Z,99868.66
2022-10-11T07:02:00.117Z,99873.44
2022-10-11T07:04:04.950Z,99876.64
2022-10-11T07:06:11.649Z,99880.14
2022-10-11T07:08:16.239Z,99882.08
2022-10-11T07:10:20.922Z,99885.44
2022-10-11T07:12:25.577Z,99886.95
2022-10-11T07:14:30.359Z,99890.52
2022-10-11T07:16:35.811Z,99893.27
2022-10-11T07:18:41.058Z,99891.30
2022-10-11T07:20:45.731Z,99892.90
2022-10-11T07:22:50.388Z,99895.40
2022-10-11T07:24:55.013Z,99900.98
2022-10-11T07:26:59.733Z,99904.23
2022-10-11T07:29:04.452Z,99902.75
2022-10-11T07:31:11.070Z,99903.48
2022-10-11T07:33:15.787Z,99910.43
2022-10-11T07:35:20.473Z,99915.56
2022-10-11T07:37:25.083Z,99912.77
2022-10-11T07:39:29.749Z,99917.38
2022-10-11T07:41:34.446Z,99916.05
2022-10-11T07:43:39.763Z,99919.65
2022-10-11T07:45:45.515Z,99917.08
2022-10-11T07:47:50.183Z,99916.85
2022-10-11T07:49:54.936Z,99915.88
2022-10-11T07:51:59.855Z,99916.81
2022-10-11T07:54:08.035Z,99920.20
2022-10-11T07:56:14.635Z,99920.20
2022-10-11T07:58:19.378Z,99919.36
2022-10-11T08:00:24.265Z,99917.92
2022-10-11T08:02:29.071Z,99919.38
2022-10-11T08:04:33.757Z,99920.91
2022-10-11T08:06:38.387Z,99919.89
2022-10-11T08:08:43.277Z,99925.43
2022-10-11T08:10:48.044Z,99925.37
2022-10-11T08:12:52.677Z,99928.08
2022-10-11T08:14:57.798Z,99928.48
2022-10-11T08:17:02.487Z,99925.30
2022-10-11T08:19:07.225Z,99925.27
2022-10-11T08:21:14.298Z,99929.87
2022-10-11T08:23:19.445Z,99929.34
2022-10-11T08:25:24.089Z,99928.13
2022-10-11T08:27:28.867Z,99927.96
2022-10-11T08:29:33.815Z,99930.05
2022-10-11T08:31:38.437Z,99933.32
2022-10-11T08:33:43.860Z,99933.36
2022-10-11T08:35:49.031Z,99936.97
2022-10-11T08:37:53.971Z,99939.88
2022-10-11T08:39:58.622Z,99938.80
2022-10-11T08:42:06.724Z,99940.16
2022-10-11T08:44:51.835Z,99943.38
2022-10-11T08:47:01.893Z,99944.94
2022-10-11T08:49:07.454Z,99946.03
2022-10-11T08:51:29.220Z,99945.84
2022-10-11T08:53:44.947Z,99940.14
2022-10-11T08:55:52.431Z,99943.18
2022-10-11T08:57:58.944Z,99944.73
2022-10-11T09:00:06.965Z,99946.85
2022-10-11T09:02:24.555Z,99946.27
2022-10-11T09:04:29.462Z,99947.49
2022-10-11T09:06:43.197Z,99947.27
2022-10-11T09:09:02.698Z,99950.41
2022-10-11T09:11:16.917Z,99952.45
2022-10-11T09:13:36.215Z,99951.19
2022-10-11T09:15:48.631Z,99950.61
2022-10-11T09:18:27.195Z,99950.91
2022-10-11T09:20:47.807Z,99948.00
2022-10-11T09:23:02.664Z,99947.60
2022-10-11T09:25:25.452Z,99948.97
2022-10-11T09:28:00.753Z,99941.83
2022-10-11T09:30:04.651Z,99945.47
2022-10-11T09:32:15.167Z,99948.40
2022-10-11T09:34:23.843Z,99948.00
2022-10-11T09:36:34.084Z,99953.46
2022-10-11T09:38:45.935Z,99955.73
2022-10-11T09:41:01.795Z,99953.35
2022-10-11T09:43:08.012Z,99954.46
2022-10-11T09:45:17.378Z,99957.11
2022-10-11T09:47:25.949Z,99954.52
2022-10-11T09:49:35.587Z,99953.66
2022-10-11T09:51:44.864Z,99955.98
2022-10-11T09:53:55.508Z,99948.66
2022-10-11T09:56:05.798Z,99953.13
2022-10-11T09:58:28.175Z,99957.27
2022-10-11T10:00:33.556Z,99960.02
2022-10-11T10:02:45.433Z,99956.16
2022-10-11T10:05:02.043Z,99956.38
2022-10-11T10:07:15.490Z,99958.56
2022-10-11T10:09:26.091Z,99953.89
2022-10-11T10:11:37.679Z,99957.79
2022-10-11T10:13:46.380Z,99953.73
2022-10-11T10:15:53.243Z,99959.88
2022-10-11T10:17:58.552Z,99954.74
2022-10-11T10:20:04.181Z,99957.77
2022-10-11T10:22:19.181Z,99954.17
2022-10-11T10:24:40.845Z,99951.08
2022-10-11T10:27:16.081Z,99949.30
2022-10-11T10:29:20.695Z,99950.05
2022-10-11T10:31:29.820Z,99952.70
2022-10-11T10:33:35.158Z,99948.26
2022-10-11T10:35:46.125Z,99956.33
2022-10-11T10:37:57.551Z,99959.39
2022-10-11T10:40:07.428Z,99951.10
2022-10-11T10:42:16.443Z,99952.81
2022-10-11T10:44:21.081Z,99950.16
2022-10-11T10:46:40.654Z,99948.36
2022-10-11T10:49:34.557Z,99953.95
2022-10-11T10:51:36.484Z,99950.27
2022-10-11T10:53:45.291Z,99945.36
2022-10-11T10:55:57.378Z,99936.89
2022-10-11T10:58:23.067Z,99950.11
2022-10-11T11:00:36.567Z,99944.67
2022-10-11T11:02:50.200Z,99946.20
2022-10-11T11:05:03.746Z,99949.52
2022-10-11T11:07:20.665Z,99950.03
2022-10-11T11:09:35.283Z,99946.25
2022-10-11T11:11:55.904Z,99942.30
2022-10-11T11:14:10.558Z,99942.49
2022-10-11T11:16:25.177Z,99945.54
2022-10-11T11:18:42.236Z,99941.98
2022-10-11T11:20:57.773Z,99946.23
2022-10-11T11:23:08.872Z,99942.82
2022-10-11T11:25:24.993Z,99936.41
2022-10-11T11:27:48.339Z,99936.27
2022-10-11T11:30:00.877Z,99943.20
2022-10-11T11:32:17.551Z,99944.39
2022-10-11T11:34:26.362Z,99938.92
2022-10-11T11:36:43.019Z,99937.51
2022-10-11T11:38:53.501Z,99941.00
2022-10-11T11:41:00.615Z,99937.13
2022-10-11T11:43:15.198Z,99940.20
2022-10-11T11:45:25.847Z,99938.08
2022-10-11T11:47:34.514Z,99941.20
2022-10-11T11:51:50.129Z,99933.91
2022-10-11T11:54:03.409Z,99937.84
2022-10-11T11:56:17.021Z,99935.08
2022-10-11T11:58:34.135Z,99931.08
2022-10-11T12:00:50.834Z,99931.42
2022-10-11T12:02:59.815Z,99924.40
2022-10-11T12:05:08.004Z,99929.94
2022-10-11T12:07:16.774Z,99933.14
2022-10-11T12:09:23.690Z,99925.08
2022-10-11T12:11:38.480Z,99930.70
2022-10-11T12:13:43.495Z,99924.99
2022-10-11T12:16:00.737Z,99923.05
2022-10-11T12:18:13.841Z,99917.80
2022-10-11T12:20:24.940Z,99922.05
2022-10-11T12:22:54.650Z,99914.71
2022-10-11T12:25:01.714Z,99916.02
2022-10-11T12:27:39.058Z,99916.38
2022-10-11T12:29:49.271Z,99912.86
2022-10-11T12:32:33.194Z,99911.02
2022-10-11T12:36:46.820Z,99914.73
2022-10-11T12:39:33.667Z,99908.56
2022-10-11T12:41:52.672Z,99905.89
2022-10-11T12:44:19.564Z,99908.35
2022-10-11T12:47:00.512Z,99902.84
2022-10-11T12:49:17.959Z,99902.51
2022-10-11T12:51:37.214Z,99905.64
2022-10-11T12:54:25.525Z,99901.86
2022-10-11T12:56:42.965Z,99899.58
2022-10-11T12:58:49.877Z,99896.09
2022-10-11T13:01:22.500Z,99904.77
2022-10-11T13:03:32.535Z,99899.89
2022-10-11T13:05:45.892Z,99898.53
2022-10-11T13:07:54.069Z,99898.10
2022-10-11T13:09:58.773Z,99896.81
2022-10-11T13:12:09.323Z,99889.44
2022-10-11T13:14:19.022Z,99894.13
2022-10-11T13:16:27.352Z,99893.72
2022-10-11T13:18:31.994Z,99894.84
2022-10-11T13:20:38.977Z,99893.47
2022-10-11T13:22:50.649Z,99891.22
2022-10-11T13:24:56.966Z,99895.75
2022-10-11T13:27:02.025Z,99890.77
2022-10-11T13:29:15.425Z,99890.88
2022-10-11T13:31:20.139Z,99892.08
2022-10-11T13:33:30.637Z,99898.45
2022-10-11T13:35:37.418Z,99899.02
2022-10-11T13:37:47.463Z,99896.15
2022-10-11T13:39:53.678Z,99896.21
2022-10-11T13:41:59.450Z,99893.30
2022-10-11T13:44:04.777Z,99891.56
2022-10-11T13:46:16.713Z,99896.08
2022-10-11T13:48:22.785Z,99896.11
2022-10-11T13:50:28.667Z,99894.73
2022-10-11T13:52:34.142Z,99899.63
2022-10-11T13:55:23.054Z,99898.67
2022-10-11T13:57:37.191Z,99897.58
2022-10-11T13:59:44.074Z,99895.61
2022-10-11T14:01:51.854Z,99894.14
2022-10-11T14:03:59.783Z,99896.15
2022-10-11T14:06:05.332Z,99896.80
2022-10-11T14:08:22.316Z,99897.64
2022-10-11T14:10:27.573Z,99894.66
2022-10-11T14:12:35.687Z,99893.07
2022-10-11T14:14:43.456Z,99893.22
2022-10-11T14:16:57.684Z,99892.37
2022-10-11T14:19:10.485Z,99896.61
2022-10-11T14:21:30.133Z,99899.28
2022-10-11T14:23:34.862Z,99895.98
2022-10-11T14:25:39.571Z,99898.33
2022-10-11T14:27:44.366Z,99900.58
2022-10-11T14:30:19.911Z,99898.38
2022-10-11T14:32:16.948Z,99897.77
2022-10-11T14:34:24.178Z,99899.17
2022-10-11T14:36:28.899Z,99903.59
2022-10-11T14:38:33.662Z,99905.39
2022-10-11T14:40:38.267Z,99907.14
2022-10-11T14:42:43.035Z,99905.10
2022-10-11T14:44:47.742Z,99910.44
2022-10-11T14:46:54.731Z,99911.39
2022-10-11T14:48:59.715Z,99914.06
2022-10-11T14:51:05.940Z,99915.03
2022-10-11T14:53:11.432Z,99913.59
2022-10-11T14:55:16.168Z,99915.36
2022-10-11T14:57:20.831Z,99915.04
2022-10-11T14:59:28.116Z,99911.08
2022-10-11T15:01:33.479Z,99914.05
2022-10-11T15:03:38.727Z,99915.29
2022-10-11T15:05:43.498Z,99913.46
2022-10-11T15:07:48.191Z,99914.04
2022-10-11T15:09:52.879Z,99913.59
2022-10-11T15:11:57.950Z,99911.52
2022-10-11T15:14:02.706Z,99912.14
2022-10-11T15:16:08.586Z,99912.55
2022-10-11T15:18:14.926Z,99912.99
2022-10-11T15:20:27.133Z,99913.34
2022-10-11T15:22:32.986Z,99915.05
2022-10-11T15:24:37.594Z,99915.27
2022-10-11T15:26:42.591Z,99916.48
2022-10-11T15:28:47.955Z,99920.02
2022-10-11T15:30:52.773Z,99920.83
2022-10-11T15:32:57.847Z,99923.21
2022-10-11T15:35:02.577Z,99919.96
2022-10-11T15:37:07.207Z,99920.31
2022-10-11T15:39:25.314Z,99922.17
2022-10-11T15:41:32.824Z,99922.62
2022-10-11T15:43:37.540Z,99921.95
2022-10-11T15:45:42.583Z,99922.02
2022-10-11T15:47:47.943Z,99926.27
2022-10-11T15:49:52.690Z,99923.08
2022-10-11T15:51:57.377Z,99923.92
2022-10-11T15:54:05.044Z,99925.92
2022-10-11T15:56:13.006Z,99926.29
2022-10-11T15:58:19.543Z,99923.89
2022-10-11T16:00:27.235Z,99928.28
2022-10-11T16:02:31.965Z,99928.48
2022-10-11T16:04:36.886Z,99930.82
2022-10-11T16:06:41.686Z,99933.09
2022-10-11T16:08:46.648Z,99937.09
2022-10-11T16:10:52.022Z,99938.51
2022-10-11T16:12:56.799Z,99934.64
2022-10-11T16:15:01.535Z,99941.09
2022-10-11T16:17:06.185Z,99938.41
2022-10-11T16:19:10.832Z,99939.82
2022-10-11T16:21:15.768Z,99941.08
2022-10-11T16:23:21.601Z,99942.63
2022-10-11T16:25:26.324Z,99945.02
2022-10-11T16:27:31.422Z,99942.81
2022-10-11T16:29:36.221Z,99948.83
2022-10-11T16:31:40.949Z,99949.08
2022-10-11T16:33:46.497Z,99954.39
2022-10-11T16:35:51.506Z,99952.80
2022-10-11T16:37:56.148Z,99953.31
2022-10-11T16:40:01.191Z,99957.30
2022-10-11T16:42:06.240Z,99958.20
2022-10-11T16:44:14.096Z,99964.92
2022-10-11T16:46:19.106Z,99966.48
2022-10-11T16:48:23.793Z,99966.73
2022-10-11T16:50:28.639Z,99964.27
2022-10-11T16:52:33.342Z,99971.52
2022-10-11T16:54:38.237Z,99977.02
2022-10-11T16:56:42.905Z,99979.04
2022-10-11T16:58:48.388Z,99980.19
2022-10-11T17:00:53.129Z,99985.30
2022-10-11T17:02:57.959Z,99987.44
2022-10-11T17:05:03.359Z,99984.70
2022-10-11T17:07:09.148Z,99986.99
2022-10-11T17:09:14.400Z,99992.70
2022-10-11T17:11:20.210Z,99993.20
2022-10-11T17:13:25.248Z,99990.20
2022-10-11T17:15:29.976Z,99994.05
2022-10-11T17:17:34.752Z,99998.19
2022-10-11T17:19:44.864Z,99995.88
2022-10-11T17:21:50.445Z,99999.01
2022-10-11T17:23:55.870Z,100000.66
2022-10-11T17:26:08.626Z,100000.98
2022-10-11T17:28:16.036Z,100001.90
2022-10-11T17:30:21.197Z,100001.44
2022-10-11T17:32:26.401Z,100000.16
2022-10-11T17:34:31.685Z,100002.83
2022-10-11T17:36:37.356Z,99999.30
2022-10-11T17:38:44.091Z,100003.32
2022-10-11T17:40:58.446Z,99999.77
2022-10-11T17:43:04.627Z,99999.88
2022-10-11T17:45:10.282Z,100003.27
2022-10-11T17:47:16.782Z,100001.84
2022-10-11T17:49:21.609Z,100004.36
2022-10-11T17:51:26.877Z,100002.20
2022-10-11T17:53:32.523Z,99997.59
2022-10-11T17:55:43.106Z,99998.66
2022-10-11T17:57:47.954Z,100002.02
2022-10-11T17:59:56.357Z,100000.56
2022-10-11T18:02:01.563Z,100005.02
2022-10-11T18:04:07.513Z,99999.33
2022-10-11T18:06:15.763Z,100003.33
2022-10-11T18:08:21.098Z,100003.38
2022-10-11T18:10:27.028Z,100004.32
2022-10-11T18:12:36.235Z,100005.23
2022-10-11T18:14:41.320Z,100006.28
2022-10-11T18:16:47.458Z,100010.14
2022-10-11T18:18:54.119Z,100010.62
2022-10-11T18:21:01.939Z,100010.99
2022-10-11T18:23:08.071Z,100013.35
2022-10-11T18:25:13.177Z,100011.29
2022-10-11T18:27:18.715Z,100012.73
2022-10-11T18:29:24.528Z,100012.58
2022-10-11T18:31:31.618Z,100018.44
2022-10-11T18:33:37.272Z,100024.17
2022-10-11T18:35:43.434Z,100022.09
2022-10-11T18:37:49.717Z,100020.86
2022-10-11T18:39:55.438Z,100022.34
2022-10-11T18:42:01.130Z,100020.36
2022-10-11T18:44:09.087Z,100019.39
2022-10-11T18:46:17.588Z,100018.28
2022-10-11T18:48:23.672Z,100019.61
2022-10-11T18:50:30.468Z,100020.73
2022-10-11T18:52:35.921Z,100021.02
2022-10-11T18:54:41.650Z,100020.48
2022-10-11T18:56:46.912Z,100020.63
2022-10-11T18:58:52.725Z,100019.45
2022-10-11T19:01:03.443Z,100019.89
2022-10-11T19:03:08.210Z,100018.40
2022-10-11T19:05:13.771Z,100020.37
2022-10-11T19:07:19.387Z,100018.75
2022-10-11T19:09:24.963Z,100016.45
2022-10-11T19:11:31.540Z,100015.63
2022-10-11T19:13:37.307Z,100013.80
2022-10-11T19:15:42.399Z,100012.14
2022-10-11T19:17:47.827Z,100011.70
2022-10-11T19:19:53.718Z,100010.02
2022-10-11T19:21:58.764Z,100015.49
2022-10-11T19:24:05.232Z,100014.86
2022-10-11T19:26:14.404Z,100018.16
2022-10-11T19:28:19.757Z,100016.27
2022-10-11T19:30:24.786Z,100016.73
2022-10-11T19:32:29.861Z,100016.15
2022-10-11T19:34:35.001Z,100021.64
2022-10-11T19:36:41.957Z,100015.93
2022-10-11T19:38:49.899Z,100014.14
2022-10-11T19:40:55.275Z,100009.80
2022-10-11T19:43:00.905Z,100013.56
2022-10-11T19:45:07.380Z,100013.88
2022-10-11T19:47:12.941Z,100014.60
2022-10-11T19:49:17.690Z,100013.39
2022-10-11T19:51:24.387Z,100013.89
2022-10-11T19:53:29.571Z,100021.89
2022-10-11T19:55:35.857Z,100019.33
2022-10-11T19:57:41.294Z,100023.34
2022-10-11T19:59:46.134Z,100027.20
2022-10-11T20:01:53.055Z,100028.02
2022-10-11T20:04:00.351Z,100025.40
2022-10-11T20:06:07.420Z,100027.89
2022-10-11T20:08:12.424Z,100029.09
2022-10-11T20:10:17.343Z,100032.42
2022-10-11T20:12:22.225Z,100027.73
2022-10-11T20:14:27.311Z,100020.88
2022-10-11T20:16:32.092Z,100017.79
2022-10-11T20:18:37.505Z,100015.23
2022-10-11T20:20:52.611Z,100018.77
2022-10-11T20:22:57.569Z,100023.13
2022-10-11T20:25:02.625Z,100028.11
2022-10-11T20:27:07.751Z,100026.86
2022-10-11T20:29:12.457Z,100028.53
2022-10-11T20:31:19.121Z,100029.63
2022-10-11T20:33:23.894Z,100032.79
2022-10-11T20:35:28.527Z,100032.64
2022-10-11T20:37:34.884Z,100035.64
2022-10-11T20:39:39.707Z,100030.92
2022-10-11T20:41:44.465Z,100031.83
2022-10-11T20:43:50.753Z,100029.84
2022-10-11T20:46:03.358Z,100031.36
2022-10-11T20:48:08.440Z,100029.16
2022-10-11T20:50:13.107Z,100034.25
2022-10-11T20:52:17.808Z,100034.67
2022-10-11T20:54:22.423Z,100032.98
2022-10-11T20:56:27.110Z,100040.95
2022-10-11T20:58:32.090Z,100046.75
2022-10-11T21:00:38.690Z,100044.39
2022-10-11T21:02:43.561Z,100049.92
2022-10-11T21:04:48.210Z,100046.80
2022-10-11T21:06:52.875Z,100048.83
2022-10-11T21:08:57.851Z,100047.09
2022-10-11T21:11:03.582Z,100047.86
2022-10-11T21:13:08.236Z,100044.48
2022-10-11T21:15:13.090Z,100041.82
2022-10-11T21:17:17.755Z,100040.63
2022-10-11T21:19:22.597Z,100040.26
2022-10-11T21:21:28.355Z,100042.16
2022-10-11T21:23:33.080Z,100044.16
2022-10-11T21:25:38.003Z,100049.19
2022-10-11T21:27:42.701Z,100048.50
2022-10-11T21:29:47.389Z,100050.67
2022-10-11T21:31:52.095Z,100052.23
2022-10-11T21:33:56.792Z,100051.99
2022-10-11T21:36:04.877Z,100053.61
2022-10-11T21:38:11.212Z,100052.23
2022-10-11T21:40:16.883Z,100052.30
2022-10-11T21:42:27.186Z,100052.64
2022-10-11T21:44:34.995Z,100053.75
2022-10-11T21:47:05.510Z,100054.34
2022-10-11T21:49:04.953Z,100052.05
2022-10-11T21:53:19.893Z,100050.80
2022-10-11T21:55:25.904Z,100052.64
2022-10-11T21:57:31.155Z,100050.91
2022-10-11T21:59:36.388Z,100050.73
2022-10-11T22:01:43.205Z,100044.29
2022-10-11T22:03:49.225Z,100046.86
2022-10-11T22:05:55.287Z,100045.27
2022-10-11T22:08:00.358Z,100045.85
2022-10-11T22:10:06.065Z,100044.85
2022-10-11T22:12:11.341Z,100044.13
2022-10-11T22:14:17.151Z,100043.21
2022-10-11T22:16:22.488Z,100043.33
2022-10-11T22:18:32.251Z,100041.03
2022-10-11T22:20:38.716Z,100037.64
2022-10-11T22:22:44.121Z,100044.55
2022-10-11T22:24:50.541Z,100044.63
2022-10-11T22:26:55.732Z,100042.05
2022-10-11T22:29:01.577Z,100038.14
2022-10-11T22:31:08.681Z,100036.35
2022-10-11T22:33:13.965Z,100035.46
2022-10-11T22:35:19.393Z,100033.09
2022-10-11T22:37:25.105Z,100037.62
2022-10-11T22:39:33.354Z,100033.96
2022-10-11T22:41:38.894Z,100034.64
2022-10-11T22:43:47.022Z,100035.65
2022-10-11T22:45:52.246Z,100035.20
2022-10-11T22:48:00.126Z,100039.96
2022-10-11T22:50:05.890Z,100042.83
2022-10-11T22:52:11.142Z,100036.31
2022-10-11T22:54:16.649Z,100037.98
2022-10-11T22:56:21.813Z,100037.89
2022-10-11T22:58:27.275Z,100031.73
2022-10-11T23:00:32.378Z,100033.76
2022-10-11T23:02:40.614Z,100036.15
2022-10-11T23:04:45.813Z,100033.05
2022-10-11T23:06:50.623Z,100037.61
2022-10-11T23:08:55.299Z,100039.23
2022-10-11T23:11:03.944Z,100038.42
2022-10-11T23:13:08.693Z,100040.87
2022-10-11T23:15:14.042Z,100038.50
2022-10-11T23:17:18.695Z,100040.84
2022-10-11T23:19:23.417Z,100041.23
2022-10-11T23:21:28.074Z,100042.76
2022-10-11T23:23:32.877Z,100044.80
2022-10-11T23:25:37.639Z,100045.37
2022-10-11T23:27:42.323Z,100051.30
2022-10-11T23:29:47.063Z,100051.96
2022-10-11T23:31:52.015Z,100055.23
2022-10-11T23:33:56.736Z,100054.38
2022-10-11T23:36:01.576Z,100055.95
2022-10-11T23:38:06.338Z,100052.95
2022-10-11T23:40:11.876Z,100054.80
2022-10-11T23:42:16.514Z,100059.58
2022-10-11T23:44:21.269Z,100060.04
2022-10-11T23:46:26.161Z,100060.73
2022-10-11T23:48:30.928Z,100062.43
2022-10-11T23:50:35.691Z,100061.98
2022-10-11T23:52:40.418Z,100065.10
2022-10-11T23:54:45.051Z,100063.80
2022-10-11T23:56:49.831Z,100062.70
2022-10-11T23:58:54.399Z,100059.26
